x

Western Hawaii - 205 Nm Sw Of Honolulu, Hi (51003) Wave Buoy

2:50am - Fri 6th May 2016 All times are HST. -10 hours from GMT.

  • Sig Wave height 5.9ft
  • Swell Direction
  • Peak Period 13s
  • Average Period 7s
  • Wind
    11mph, 13mph gusts
  • Sea Temp 78°f
  • Air Temp 77°f
  • Sea Pressure 1015.9mb
  • Western  Hawaii - 205 Nm Sw Of Honolulu, Hi
  • Western  Hawaii - 205 Nm Sw Of Honolulu, Hi

More Historic Weather Station data

Upgrade to MSW Pro to gain access to the past 30 days of data for over 8000 Wavebouys and Weather Stations around the globe.

Join Pro

Comparision Forecast

View Surf forecast
   
Fri 05/06 2:50am 6ft 13s 7s 11 13 mph 1015.9mb 78f 77f
1:50am 6ft 14s 7s 11 13 mph 1016.2mb 78f 78f
12:50am 6ft 14s 7s 11 13 mph 1016.8mb 78f 78f
Thu 05/05 11:50pm 6ft 14s 7s 9 11 mph 1017.5mb 78f 77f
10:50pm 6ft 14s 7s 11
mph
1017.6mb 78f 77f
9:50pm 6ft 14s 8s 9 11 mph 1017.5mb 78f 77f
8:50pm 6ft 13s 7s 9 11 mph 1017.1mb 78f 77f
7:50pm 6ft 14s 7s 7 9 mph 1016.3mb 78f 77f
6:50pm 6ft 14s 7s 7 9 mph 1015.5mb 78f 76f
5:50pm 6ft 14s 7s 7
mph
1015mb 78f 76f
4:50pm 6ft 14s 7s 7 9 mph 1014.6mb 78f 76f
3:50pm 6.5ft 14s 7s 7 9 mph 1014.8mb 78f 76f
2:50pm 6ft 14s 6s 9 11 mph 1014.9mb 78f 75f
1:50pm 6.5ft 8s 7s 18 22 mph 1016mb 78f 73f
12:50pm 7ft 14s 7s 13 16 mph 1016.6mb 78f 76f
11:50am 7ft 14s 7s 11 13 mph 1017.4mb 78f 74f
10:50am 6.5ft 14s 6s 20 22 mph 1017.8mb 78f 72f
9:50am 6ft 15s 7s 22 27 mph 1017.4mb 78f 74f
8:50am 6.5ft 15s 8s 9 11 mph 1017.4mb 78f 78f
7:50am 7ft 15s 8s 9 11 mph 1016.8mb 78f 77f
6:50am 5.5ft 15s 7s 11 16 mph 1016.1mb 78f 77f
5:50am 6.5ft 15s 8s 11 13 mph 1015.8mb 78f 77f
4:50am 6ft 15s 7s 11 13 mph 1015.5mb 78f 77f
3:50am 6ft 15s 7s 11
mph
1015.6mb 78f 77f
2:50am 6.5ft 15s 7s 11 13 mph 1016mb 78f 77f
1:50am 6.5ft 15s 8s 11 16 mph 1016.5mb 78f 77f
12:50am 6.5ft 16s 7s 11 13 mph 1017.2mb 78f 77f
Wed 05/04 11:50pm 7ft 15s 7s 13 16 mph 1017.6mb 78f 77f
10:50pm 7.5ft 16s 7s 13 16 mph 1017.9mb 78f 77f
9:50pm 6.5ft 16s 7s 13 16 mph 1017.7mb 78f 78f
8:50pm 6.5ft 15s 7s 16 18 mph 1017.2mb 78f 78f
7:50pm 7ft 16s 8s 11 13 mph 1016.9mb 78f 78f
6:50pm 6.5ft 16s 8s 11 13 mph 1016.3mb 79f 78f
5:50pm 6ft 16s 7s 9 11 mph 1015.9mb 79f 78f
4:50pm 6.5ft 16s 7s 9 11 mph 1015.8mb 79f 78f
3:50pm 6ft 16s 7s 7 9 mph 1016.1mb 79f 78f
2:50pm 6.5ft 8s 7s 9 11 mph 1016.5mb 79f 78f
1:50pm 6ft 16s 7s 9 11 mph 1017.1mb 79f 78f
12:50pm 6ft 16s 7s 11 13 mph 1017.8mb 79f 78f
11:50am 5.5ft 17s 7s 9 11 mph 1018mb 78f 77f
10:50am 5.5ft 8s 6s 9 11 mph 1018.6mb 78f 77f
9:50am 6ft 8s 7s 11 13 mph 1018.6mb 78f 77f
8:50am 6ft 8s 7s 7 9 mph 1018.5mb 78f 77f
7:50am 6ft 8s 7s 11
mph
1018.1mb 78f 76f
6:50am 5.5ft 8s 7s 9 11 mph 1017.3mb 78f 76f
5:50am 5.5ft 8s 7s 7 9 mph 1016.6mb 78f 76f
4:50am 6ft 8s 7s 7 9 mph 1016.4mb 78f 76f
3:50am 6ft 8s 7s 9
mph
1016.6mb 78f 76f
2:50am 6ft 9s 7s 7 9 mph 1016.8mb 78f 76f
1:50am 6ft 7s 7s 9 13 mph 1017.5mb 78f 77f
12:50am 6ft 8s 7s 11 13 mph 1018.1mb 78f 77f
Tue 05/03 11:50pm 6.5ft 9s 6s 13 16 mph 1018.8mb 78f 77f
10:50pm 6ft 8s 6s 13 18 mph 1019mb 78f 77f
9:50pm 6.5ft 8s 6s 13 16 mph 1018.9mb 78f 77f
8:50pm 6ft 8s 6s 16 20 mph 1018.4mb 78f 78f
7:50pm 7ft 9s 6s 16 20 mph 1017.9mb 78f 77f
6:50pm 6ft 8s 6s 16 22 mph 1017.4mb 78f 77f
5:50pm 6.5ft 8s 6s 13 16 mph 1017mb 78f 78f
4:50pm 6.5ft 8s 6s 16 18 mph 1016.5mb 78f 78f
3:50pm 7ft 8s 7s 16 18 mph 1016.6mb 78f 78f
2:50pm 6ft 8s 6s 16 18 mph 1017.1mb 78f 78f
1:50pm 7ft 8s 7s 13 16 mph 1017.8mb 78f 78f
12:50pm 7ft 8s 6s 16 18 mph 1018.4mb 78f 78f
11:50am 6.5ft 8s 6s 16 18 mph 1019.1mb 78f 77f
10:50am 7.5ft 8s 6s 16 18 mph 1019.5mb 78f 78f
9:50am 6.5ft 7s 6s 16 20 mph 1019.5mb 78f 77f
8:50am 6.5ft 9s 6s 18 20 mph 1019.1mb 78f 78f
7:50am 6.5ft 8s 6s 20 22 mph 1018.8mb 78f 77f
6:50am 7ft 9s 6s 11 13 mph 1018.4mb 78f 74f
5:50am 6ft 9s 6s 20 22 mph 1017.4mb 78f 75f
4:50am 6.5ft 8s 6s 18 20 mph 1016.8mb 78f 77f
2:50am 6ft 9s 6s 18 20 mph 1016.8mb 78f 77f
1:50am 6ft 8s 6s 18 20 mph 1017.4mb 78f 77f
12:50am 6.5ft 10s 6s 16 18 mph 1018mb 78f 77f
Mon 05/02 11:50pm 7ft 7s 6s 16 18 mph 1018.7mb 78f 77f
10:50pm 7ft 8s 6s 16 20 mph 1019mb 78f 77f
9:50pm 6.5ft 10s 6s 18 22 mph 1018.8mb 78f 77f
8:50pm 6ft 8s 6s 18 20 mph 1018.3mb 78f 77f
7:50pm 7ft 9s 6s 16 18 mph 1017.9mb 78f 78f
6:50pm 7ft 9s 6s 16 20 mph 1017.3mb 78f 78f
5:50pm 6.5ft 8s 6s 18 20 mph 1016.9mb 78f 78f
4:50pm 6.5ft 8s 6s 20 22 mph 1016.5mb 78f 78f
3:50pm 6ft 6s 6s 18 22 mph 1016.7mb 78f 78f
2:50pm 6.5ft 7s 6s 16 20 mph 1017.2mb 78f 78f